createdAt,value
2023-02-01T00:01:37.440Z,2.50
2023-02-01T00:04:04.685Z,2.97
2023-02-01T00:06:31.748Z,3.28
2023-02-01T00:08:58.927Z,2.45
2023-02-01T00:11:26.047Z,2.55
2023-02-01T00:13:53.544Z,2.90
2023-02-01T00:16:23.047Z,2.83
2023-02-01T00:18:51.800Z,3.00
2023-02-01T00:21:21.306Z,2.80
2023-02-01T00:23:48.675Z,2.60
2023-02-01T00:26:32.714Z,2.58
2023-02-01T00:29:00.461Z,2.85
2023-02-01T00:31:29.525Z,2.72
2023-02-01T00:33:57.189Z,2.60
2023-02-01T00:36:24.579Z,2.22
2023-02-01T00:38:51.527Z,2.88
2023-02-01T00:41:20.967Z,2.65
2023-02-01T00:43:49.094Z,2.70
2023-02-01T00:46:18.068Z,3.25
2023-02-01T00:48:45.628Z,3.15
2023-02-01T00:51:15.603Z,2.55
2023-02-01T00:53:43.057Z,2.78
2023-02-01T00:56:10.931Z,3.00
2023-02-01T00:58:38.493Z,2.70
2023-02-01T01:01:14.232Z,3.20
2023-02-01T01:03:47.493Z,3.00
2023-02-01T01:06:17.051Z,3.58
2023-02-01T01:08:45.193Z,3.05
2023-02-01T01:11:24.324Z,3.25
2023-02-01T01:13:53.261Z,2.95
2023-02-01T01:16:21.473Z,3.38
2023-02-01T01:18:48.821Z,3.17
2023-02-01T01:21:17.277Z,3.08
2023-02-01T01:23:44.907Z,3.35
2023-02-01T01:26:20.830Z,3.22
2023-02-01T01:28:48.095Z,2.80
2023-02-01T01:31:17.631Z,2.97
2023-02-01T01:33:45.577Z,3.08
2023-02-01T01:36:13.472Z,3.40
2023-02-01T01:38:41.644Z,2.75
2023-02-01T01:41:12.030Z,3.42
2023-02-01T01:43:54.168Z,3.25
2023-02-01T01:46:31.397Z,2.88
2023-02-01T01:49:02.574Z,3.05
2023-02-01T01:51:33.339Z,2.90
2023-02-01T01:54:13.022Z,3.20
2023-02-01T01:56:40.625Z,3.13
2023-02-01T01:59:08.180Z,2.83
2023-02-01T02:01:35.952Z,3.50
2023-02-01T02:04:03.313Z,3.45
2023-02-01T02:06:51.144Z,3.28
2023-02-01T02:09:18.477Z,3.80
2023-02-01T02:11:45.673Z,2.80
2023-02-01T02:14:17.625Z,3.45
2023-02-01T02:17:04.991Z,3.42
2023-02-01T02:19:32.451Z,2.97
2023-02-01T02:22:43.950Z,3.47
2023-02-01T02:25:31.570Z,3.70
2023-02-01T02:28:22.926Z,3.50
2023-02-01T02:31:15.834Z,3.28
2023-02-01T02:33:43.140Z,3.25
2023-02-01T02:36:35.166Z,3.28
2023-02-01T02:39:03.570Z,3.00
2023-02-01T02:41:55.066Z,3.70
2023-02-01T02:45:06.218Z,2.97
2023-02-01T02:47:47.551Z,2.83
2023-02-01T02:50:42.001Z,3.17
2023-02-01T02:53:41.414Z,3.85
2023-02-01T02:56:29.292Z,3.28
2023-02-01T02:59:15.095Z,3.35
2023-02-01T03:02:01.743Z,3.53
2023-02-01T03:04:29.396Z,3.38
2023-02-01T03:06:56.652Z,3.55
2023-02-01T03:09:37.537Z,3.60
2023-02-01T03:12:50.845Z,3.53
2023-02-01T03:15:18.337Z,3.33
2023-02-01T03:17:46.551Z,3.42
2023-02-01T03:20:15.620Z,3.17
2023-02-01T03:22:44.969Z,3.55
2023-02-01T03:25:19.783Z,3.28
2023-02-01T03:27:56.091Z,3.40
2023-02-01T03:30:36.890Z,3.60
2023-02-01T03:33:14.793Z,3.22
2023-02-01T03:36:11.434Z,3.15
2023-02-01T03:38:38.655Z,3.20
2023-02-01T03:41:19.185Z,2.92
2023-02-01T03:44:09.696Z,2.53
2023-02-01T03:46:46.176Z,3.13
2023-02-01T03:49:25.633Z,2.75
2023-02-01T03:51:53.044Z,2.95
2023-02-01T03:54:20.752Z,3.80
2023-02-01T03:56:49.356Z,2.90
2023-02-01T03:59:17.118Z,3.00
2023-02-01T04:01:44.403Z,3.00
2023-02-01T04:04:11.373Z,3.40
2023-02-01T04:06:40.085Z,3.53
2023-02-01T04:09:06.977Z,3.45
2023-02-01T04:11:34.161Z,3.72
2023-02-01T04:14:05.280Z,3.55
2023-02-01T04:16:33.273Z,3.53
2023-02-01T04:19:00.309Z,3.67
2023-02-01T04:21:27.728Z,3.80
2023-02-01T04:23:54.737Z,3.25
2023-02-01T04:26:22.646Z,3.53
2023-02-01T04:28:49.904Z,4.05
2023-02-01T04:31:18.083Z,3.75
2023-02-01T04:33:45.670Z,3.53
2023-02-01T04:36:12.873Z,3.80
2023-02-01T04:38:40.048Z,4.05
2023-02-01T04:41:06.865Z,4.13
2023-02-01T04:43:34.143Z,3.72
2023-02-01T04:46:01.180Z,3.75
2023-02-01T04:48:28.754Z,3.83
2023-02-01T04:50:56.003Z,3.47
2023-02-01T04:53:22.878Z,2.83
2023-02-01T04:55:51.111Z,3.22
2023-02-01T04:58:18.292Z,3.88
2023-02-01T05:00:45.456Z,3.42
2023-02-01T05:03:12.677Z,3.03
2023-02-01T05:05:39.871Z,3.30
2023-02-01T05:08:06.716Z,3.05
2023-02-01T05:10:33.483Z,3.35
2023-02-01T05:13:18.904Z,3.00
2023-02-01T05:15:47.186Z,2.80
2023-02-01T05:18:14.757Z,2.78
2023-02-01T05:20:42.009Z,2.92
2023-02-01T05:23:09.378Z,2.88
2023-02-01T05:25:36.539Z,2.75
2023-02-01T05:28:03.777Z,2.45
2023-02-01T05:30:30.973Z,2.95
2023-02-01T05:32:58.182Z,2.92
2023-02-01T05:35:25.390Z,2.50
2023-02-01T05:37:52.192Z,2.30
2023-02-01T05:40:19.522Z,2.45
2023-02-01T05:42:46.935Z,2.30
2023-02-01T05:45:13.849Z,2.95
2023-02-01T05:47:41.316Z,2.63
2023-02-01T05:50:08.812Z,3.22
2023-02-01T05:52:36.239Z,2.25
2023-02-01T05:55:03.455Z,2.20
2023-02-01T05:57:31.136Z,2.42
2023-02-01T05:59:59.510Z,3.00
2023-02-01T06:02:27.319Z,2.17
2023-02-01T06:04:54.667Z,2.03
2023-02-01T06:07:22.940Z,1.67
2023-02-01T06:09:50.300Z,1.90
2023-02-01T06:12:17.501Z,2.00
2023-02-01T06:14:44.842Z,1.98
2023-02-01T06:17:12.059Z,2.80
2023-02-01T06:19:41.509Z,1.85
2023-02-01T06:22:08.768Z,1.70
2023-02-01T06:24:35.617Z,1.85
2023-02-01T06:27:02.884Z,1.67
2023-02-01T06:29:30.169Z,2.00
2023-02-01T06:31:57.043Z,2.17
2023-02-01T06:34:24.625Z,2.70
2023-02-01T06:36:52.287Z,2.75
2023-02-01T06:39:20.404Z,2.83
2023-02-01T06:41:48.690Z,2.47
2023-02-01T06:44:17.093Z,3.75
2023-02-01T06:46:44.820Z,3.90
2023-02-01T06:49:12.046Z,3.88
2023-02-01T06:51:38.819Z,3.88
2023-02-01T06:54:06.060Z,3.22
2023-02-01T06:56:33.351Z,2.90
2023-02-01T06:59:01.551Z,2.60
2023-02-01T07:01:28.857Z,3.65
2023-02-01T07:03:56.074Z,2.10
2023-02-01T07:06:23.279Z,2.90
2023-02-01T07:08:50.165Z,3.15
2023-02-01T07:11:18.702Z,2.67
2023-02-01T07:13:45.921Z,2.30
2023-02-01T07:16:15.567Z,3.47
2023-02-01T07:18:42.818Z,2.72
2023-02-01T07:21:10.363Z,3.20
2023-02-01T07:23:38.111Z,3.38
2023-02-01T07:26:07.136Z,2.72
2023-02-01T07:28:36.094Z,2.60
2023-02-01T07:31:08.245Z,3.15
2023-02-01T07:33:35.812Z,3.33
2023-02-01T07:36:05.692Z,3.42
2023-02-01T07:38:33.236Z,3.88
2023-02-01T07:41:04.636Z,3.78
2023-02-01T07:43:32.131Z,3.60
2023-02-01T07:45:59.552Z,4.20
2023-02-01T07:48:27.601Z,3.72
2023-02-01T07:51:01.669Z,4.22
2023-02-01T07:53:29.996Z,4.47
2023-02-01T07:55:57.274Z,4.15
2023-02-01T07:58:25.100Z,4.50
2023-02-01T08:01:11.260Z,4.22
2023-02-01T08:03:38.762Z,3.55
2023-02-01T08:06:07.431Z,3.85
2023-02-01T08:08:34.809Z,3.70
2023-02-01T08:11:03.772Z,4.28
2023-02-01T08:13:31.108Z,3.65
2023-02-01T08:16:03.553Z,3.90
2023-02-01T08:18:31.059Z,3.92
2023-02-01T08:20:58.523Z,3.60
2023-02-01T08:23:25.386Z,3.78
2023-02-01T08:25:52.713Z,3.97
2023-02-01T08:28:20.155Z,3.55
2023-02-01T08:30:47.444Z,4.47
2023-02-01T08:33:14.682Z,3.47
2023-02-01T08:35:44.086Z,3.80
2023-02-01T08:38:11.752Z,3.88
2023-02-01T08:40:39.033Z,3.50
2023-02-01T08:43:05.833Z,3.55
2023-02-01T08:45:33.157Z,3.45
2023-02-01T08:48:00.390Z,3.38
2023-02-01T08:50:27.736Z,3.20
2023-02-01T08:52:54.985Z,3.50
2023-02-01T08:55:22.379Z,3.67
2023-02-01T08:57:49.797Z,3.20
2023-02-01T09:00:18.089Z,3.75
2023-02-01T09:02:45.513Z,3.40
2023-02-01T09:05:14.898Z,3.78
2023-02-01T09:07:41.675Z,3.20
2023-02-01T09:10:09.159Z,3.58
2023-02-01T09:12:36.895Z,2.95
2023-02-01T09:15:04.394Z,4.15
2023-02-01T09:17:31.670Z,3.60
2023-02-01T09:19:58.895Z,2.45
2023-02-01T09:22:26.281Z,3.80
2023-02-01T09:24:55.148Z,3.22
2023-02-01T09:27:23.004Z,4.07
2023-02-01T09:29:56.115Z,3.10
2023-02-01T09:32:23.964Z,3.25
2023-02-01T09:34:52.441Z,3.40
2023-02-01T09:37:19.959Z,3.05
2023-02-01T09:39:47.235Z,3.63
2023-02-01T09:42:42.100Z,3.20
2023-02-01T09:45:09.502Z,4.00
2023-02-01T09:47:37.014Z,2.67
2023-02-01T09:50:09.682Z,2.63
2023-02-01T09:52:56.859Z,2.40
2023-02-01T09:55:45.673Z,3.22
2023-02-01T09:58:21.387Z,3.20
2023-02-01T10:00:58.011Z,2.90
2023-02-01T10:03:28.955Z,2.72
2023-02-01T10:06:10.193Z,2.70
2023-02-01T10:09:07.877Z,3.08
2023-02-01T10:11:49.631Z,2.65
2023-02-01T10:14:28.289Z,2.58
2023-02-01T10:17:39.184Z,2.80
2023-02-01T10:20:20.014Z,2.80
2023-02-01T10:26:09.188Z,3.03
2023-02-01T10:28:38.488Z,3.28
2023-02-01T10:31:06.387Z,2.40
2023-02-01T10:33:58.406Z,2.58
2023-02-01T10:36:31.488Z,2.60
2023-02-01T10:39:00.559Z,2.80
2023-02-01T10:41:36.787Z,3.03
2023-02-01T10:44:27.065Z,2.35
2023-02-01T10:46:54.338Z,2.63
2023-02-01T10:49:30.112Z,2.22
2023-02-01T10:52:07.061Z,2.92
2023-02-01T10:54:36.949Z,3.03
2023-02-01T10:57:04.399Z,2.58
2023-02-01T10:59:34.461Z,2.80
2023-02-01T11:02:33.709Z,2.15
2023-02-01T11:05:07.058Z,2.63
2023-02-01T11:07:34.383Z,2.45
2023-02-01T11:10:02.892Z,3.55
2023-02-01T11:12:39.050Z,2.30
2023-02-01T11:15:20.048Z,2.63
2023-02-01T11:17:49.606Z,2.50
2023-02-01T11:20:33.282Z,2.55
2023-02-01T11:23:00.669Z,2.88
2023-02-01T11:25:28.251Z,2.22
2023-02-01T11:27:56.742Z,2.45
2023-02-01T11:30:28.437Z,2.63
2023-02-01T11:32:55.853Z,2.67
2023-02-01T11:35:23.474Z,2.25
2023-02-01T11:38:01.102Z,2.60
2023-02-01T11:40:35.209Z,2.85
2023-02-01T11:43:08.817Z,2.92
2023-02-01T11:45:38.395Z,2.28
2023-02-01T11:48:14.998Z,2.75
2023-02-01T11:50:51.004Z,2.30
2023-02-01T11:53:46.115Z,2.65
2023-02-01T11:56:43.503Z,2.60
2023-02-01T11:59:19.360Z,2.83
2023-02-01T12:01:47.571Z,2.25
2023-02-01T12:04:47.380Z,2.70
2023-02-01T12:07:39.460Z,2.78
2023-02-01T12:10:38.394Z,2.35
2023-02-01T12:13:05.577Z,2.25
2023-02-01T12:15:32.801Z,2.25
2023-02-01T12:18:20.507Z,2.17
2023-02-01T12:20:47.821Z,2.25
2023-02-01T12:23:43.338Z,2.30
2023-02-01T12:26:34.842Z,2.92
2023-02-01T12:29:01.987Z,2.60
2023-02-01T12:31:38.001Z,2.83
2023-02-01T12:34:38.880Z,2.70
2023-02-01T12:37:17.595Z,2.22
2023-02-01T12:40:04.761Z,2.45
2023-02-01T12:42:57.942Z,2.63
2023-02-01T12:45:42.128Z,2.38
2023-02-01T12:48:30.553Z,2.70
2023-02-01T12:51:02.839Z,2.53
2023-02-01T12:54:01.178Z,2.45
2023-02-01T12:56:43.332Z,2.70
2023-02-01T12:59:23.346Z,2.33
2023-02-01T13:02:10.906Z,2.40
2023-02-01T13:05:21.211Z,2.50
2023-02-01T13:08:03.263Z,2.83
2023-02-01T13:10:30.455Z,2.58
2023-02-01T13:13:23.458Z,2.58
2023-02-01T13:16:29.789Z,2.50
2023-02-01T13:19:15.131Z,2.47
2023-02-01T13:22:08.835Z,2.33
2023-02-01T13:24:53.436Z,2.13
2023-02-01T13:27:20.733Z,2.78
2023-02-01T13:30:12.895Z,2.55
2023-02-01T13:33:54.062Z,2.58
2023-02-01T13:36:05.624Z,2.95
2023-02-01T13:38:38.361Z,2.65
2023-02-01T13:41:29.492Z,2.45
2023-02-01T13:44:11.701Z,2.22
2023-02-01T13:46:45.174Z,1.92
2023-02-01T13:49:33.379Z,2.65
2023-02-01T13:52:00.630Z,2.80
2023-02-01T13:54:33.761Z,2.85
2023-02-01T13:57:02.078Z,2.67
2023-02-01T13:59:51.033Z,2.88
2023-02-01T14:02:42.988Z,1.95
2023-02-01T14:05:35.371Z,2.25
2023-02-01T14:08:08.655Z,2.30
2023-02-01T14:10:55.245Z,2.42
2023-02-01T14:16:04.007Z,2.22
2023-02-01T14:18:42.946Z,2.47
2023-02-01T14:21:31.131Z,2.10
2023-02-01T14:24:08.968Z,2.00
2023-02-01T14:26:36.208Z,2.35
2023-02-01T14:29:21.716Z,2.95
2023-02-01T14:32:11.839Z,2.45
2023-02-01T14:34:47.622Z,2.85
2023-02-01T14:37:23.769Z,2.30
2023-02-01T14:42:39.363Z,2.40
2023-02-01T14:45:25.156Z,2.30
2023-02-01T14:48:07.805Z,2.97
2023-02-01T14:50:38.445Z,2.30
2023-02-01T14:53:05.712Z,2.33
2023-02-01T14:55:39.967Z,3.38
2023-02-01T14:58:19.892Z,2.05
2023-02-01T15:00:58.927Z,2.40
2023-02-01T15:03:53.732Z,2.60
2023-02-01T15:06:25.601Z,2.88
2023-02-01T15:08:56.891Z,2.00
2023-02-01T15:11:24.194Z,2.22
2023-02-01T15:13:54.826Z,2.53
2023-02-01T15:16:23.782Z,3.13
2023-02-01T15:18:51.485Z,2.00
2023-02-01T15:21:30.477Z,2.60
2023-02-01T15:24:15.936Z,2.42
2023-02-01T15:26:43.896Z,2.53
2023-02-01T15:29:13.401Z,2.05
2023-02-01T15:31:53.850Z,2.25
2023-02-01T15:34:21.881Z,1.92
2023-02-01T15:37:01.911Z,2.20
2023-02-01T15:39:32.884Z,2.85
2023-02-01T15:42:10.197Z,2.63
2023-02-01T15:44:47.023Z,2.78
2023-02-01T15:47:25.425Z,2.78
2023-02-01T15:49:55.501Z,2.20
2023-02-01T15:52:23.837Z,2.72
2023-02-01T15:54:55.631Z,2.20
2023-02-01T15:57:33.253Z,2.38
2023-02-01T16:00:07.708Z,2.33
2023-02-01T16:02:53.750Z,2.08
2023-02-01T16:05:47.165Z,2.58
2023-02-01T16:08:16.048Z,2.17
2023-02-01T16:10:46.716Z,2.10
2023-02-01T16:13:15.165Z,2.10
2023-02-01T16:15:42.566Z,2.50
2023-02-01T16:18:10.977Z,2.15
2023-02-01T16:20:40.047Z,2.47
2023-02-01T16:23:08.264Z,2.03
2023-02-01T16:25:35.604Z,1.90
2023-02-01T16:28:02.945Z,2.28
2023-02-01T16:30:29.815Z,2.53
2023-02-01T16:33:01.018Z,4.03
2023-02-01T16:35:38.847Z,3.78
2023-02-01T16:38:19.701Z,2.67
2023-02-01T16:40:47.292Z,3.40
2023-02-01T16:43:17.152Z,3.00
2023-02-01T16:45:48.771Z,2.65
2023-02-01T16:48:27.785Z,3.88
2023-02-01T16:51:02.796Z,2.95
2023-02-01T16:53:36.609Z,3.00
2023-02-01T16:58:43.859Z,1.87
2023-02-01T17:01:16.696Z,2.55
2023-02-01T17:03:47.042Z,2.50
2023-02-01T17:06:20.655Z,2.50
2023-02-01T17:08:59.124Z,2.90
2023-02-01T17:11:30.929Z,2.75
2023-02-01T17:14:17.939Z,2.33
2023-02-01T17:16:48.718Z,2.10
2023-02-01T17:19:18.854Z,2.30
2023-02-01T17:21:50.375Z,3.47
2023-02-01T17:24:20.068Z,2.30
2023-02-01T17:26:46.989Z,2.88
2023-02-01T17:29:14.302Z,2.25
2023-02-01T17:31:44.763Z,2.10
2023-02-01T17:34:14.198Z,2.60
2023-02-01T17:36:41.407Z,2.30
2023-02-01T17:39:10.196Z,2.42
2023-02-01T17:41:37.681Z,2.55
2023-02-01T17:44:05.407Z,2.88
2023-02-01T17:46:32.659Z,5.75
2023-02-01T17:48:59.502Z,9.57
2023-02-01T17:51:28.955Z,4.80
2023-02-01T17:53:56.380Z,2.83
2023-02-01T17:56:25.452Z,3.75
2023-02-01T17:58:52.664Z,3.15
2023-02-01T18:01:21.979Z,2.80
2023-02-01T18:03:49.551Z,2.70
2023-02-01T18:06:23.159Z,2.58
2023-02-01T18:08:52.599Z,2.58
2023-02-01T18:11:21.874Z,2.60
2023-02-01T18:13:51.975Z,2.53
2023-02-01T18:16:30.489Z,3.30
2023-02-01T18:19:01.747Z,2.97
2023-02-01T18:21:42.291Z,3.00
2023-02-01T18:24:16.783Z,3.13
2023-02-01T18:26:43.990Z,2.35
2023-02-01T18:29:11.411Z,2.35
2023-02-01T18:31:45.412Z,3.00
2023-02-01T18:34:17.491Z,2.30
2023-02-01T18:36:44.802Z,2.58
2023-02-01T18:39:12.125Z,2.05
2023-02-01T18:41:40.623Z,2.20
2023-02-01T18:44:16.582Z,2.97
2023-02-01T18:46:43.892Z,2.65
2023-02-01T18:49:14.092Z,2.75
2023-02-01T18:51:43.548Z,2.38
2023-02-01T18:54:12.205Z,2.45
2023-02-01T18:56:39.611Z,2.92
2023-02-01T18:59:07.022Z,2.25
2023-02-01T19:01:34.036Z,2.15
2023-02-01T19:04:10.299Z,2.38
2023-02-01T19:06:40.516Z,2.28
2023-02-01T19:09:08.048Z,2.50
2023-02-01T19:11:35.312Z,2.97
2023-02-01T19:14:02.097Z,2.10
2023-02-01T19:16:29.459Z,2.67
2023-02-01T19:18:56.235Z,2.30
2023-02-01T19:21:23.047Z,2.53
2023-02-01T19:23:50.290Z,2.28
2023-02-01T19:26:18.426Z,2.97
2023-02-01T19:28:47.931Z,3.10
2023-02-01T19:31:15.661Z,2.60
2023-02-01T19:33:43.106Z,2.25
2023-02-01T19:36:11.044Z,2.67
2023-02-01T19:38:38.739Z,2.85
2023-02-01T19:41:06.463Z,2.50
2023-02-01T19:43:33.908Z,2.35
2023-02-01T19:46:02.948Z,2.65
2023-02-01T19:48:31.621Z,2.85
2023-02-01T19:50:59.263Z,2.20
2023-02-01T19:53:27.904Z,2.38
2023-02-01T19:55:58.917Z,2.70
2023-02-01T19:58:26.525Z,2.20
2023-02-01T20:00:56.989Z,2.78
2023-02-01T20:03:24.399Z,2.88
2023-02-01T20:05:58.518Z,2.40
2023-02-01T20:08:25.950Z,2.63
2023-02-01T20:10:53.130Z,2.92
2023-02-01T20:13:20.471Z,2.30
2023-02-01T20:15:47.605Z,3.00
2023-02-01T20:18:15.700Z,1.98
2023-02-01T20:20:42.839Z,2.20
2023-02-01T20:23:10.322Z,3.03
2023-02-01T20:25:38.905Z,2.92
2023-02-01T20:28:06.048Z,2.13
2023-02-01T20:30:33.293Z,2.35
2023-02-01T20:33:00.934Z,2.40
2023-02-01T20:35:29.205Z,2.50
2023-02-01T20:37:57.259Z,2.47
2023-02-01T20:40:24.351Z,2.67
2023-02-01T20:42:51.218Z,3.20
2023-02-01T20:45:18.087Z,2.75
2023-02-01T20:47:45.362Z,2.72
2023-02-01T20:50:12.443Z,2.55
2023-02-01T20:52:39.298Z,3.03
2023-02-01T20:55:06.626Z,2.78
2023-02-01T20:57:33.570Z,2.58
2023-02-01T21:00:00.956Z,3.03
2023-02-01T21:02:28.103Z,2.22
2023-02-01T21:04:55.490Z,3.05
2023-02-01T21:07:23.058Z,2.47
2023-02-01T21:09:50.481Z,2.75
2023-02-01T21:12:17.481Z,2.83
2023-02-01T21:14:44.847Z,2.65
2023-02-01T21:17:12.595Z,2.30
2023-02-01T21:19:45.635Z,3.15
2023-02-01T21:22:14.245Z,2.83
2023-02-01T21:24:42.015Z,2.53
2023-02-01T21:27:09.966Z,3.08
2023-02-01T21:29:37.167Z,2.38
2023-02-01T21:32:04.872Z,2.40
2023-02-01T21:34:32.132Z,2.30
2023-02-01T21:36:59.266Z,1.92
2023-02-01T21:39:28.960Z,2.45
2023-02-01T21:42:14.851Z,2.47
2023-02-01T21:44:42.541Z,3.13
2023-02-01T21:47:11.237Z,2.50
2023-02-01T21:49:38.110Z,2.67
2023-02-01T21:52:05.807Z,3.15
2023-02-01T21:54:32.648Z,2.03
2023-02-01T21:56:59.467Z,2.15
2023-02-01T21:59:26.655Z,2.15
2023-02-01T22:01:53.442Z,2.60
2023-02-01T22:04:20.885Z,2.55
2023-02-01T22:06:47.721Z,2.45
2023-02-01T22:09:19.773Z,2.40
2023-02-01T22:11:47.024Z,3.22
2023-02-01T22:14:14.559Z,2.40
2023-02-01T22:16:41.898Z,2.10
2023-02-01T22:19:15.679Z,2.30
2023-02-01T22:21:45.753Z,2.80
2023-02-01T22:24:17.694Z,2.70
2023-02-01T22:26:44.580Z,2.45
2023-02-01T22:29:14.979Z,2.50
2023-02-01T22:31:43.118Z,2.65
2023-02-01T22:34:11.077Z,2.85
2023-02-01T22:36:38.731Z,2.90
2023-02-01T22:39:05.984Z,3.50
2023-02-01T22:41:33.268Z,2.88
2023-02-01T22:44:01.004Z,2.85
2023-02-01T22:46:29.857Z,2.17
2023-02-01T22:48:57.851Z,2.90
2023-02-01T22:51:27.706Z,2.30
2023-02-01T22:53:57.964Z,2.20
2023-02-01T22:56:30.475Z,3.40
2023-02-01T22:58:59.793Z,3.45
2023-02-01T23:01:27.564Z,2.90
2023-02-01T23:04:03.740Z,2.08
2023-02-01T23:06:31.731Z,2.65
2023-02-01T23:09:02.517Z,2.10
2023-02-01T23:11:30.021Z,2.95
2023-02-01T23:13:57.549Z,3.55
2023-02-01T23:16:24.663Z,2.50
2023-02-01T23:18:51.950Z,2.58
2023-02-01T23:21:20.937Z,2.67
2023-02-01T23:23:50.478Z,2.60
2023-02-01T23:26:17.865Z,2.95
2023-02-01T23:28:45.451Z,3.33
2023-02-01T23:31:14.288Z,2.53
2023-02-01T23:33:41.788Z,2.88
2023-02-01T23:36:12.228Z,2.63
2023-02-01T23:38:39.100Z,2.67
2023-02-01T23:41:07.345Z,2.67
2023-02-01T23:43:53.481Z,2.67
2023-02-01T23:46:20.793Z,2.20
2023-02-01T23:48:49.132Z,2.78
2023-02-01T23:51:16.495Z,3.03
2023-02-01T23:53:44.852Z,2.47
2023-02-01T23:56:27.074Z,2.90
2023-02-01T23:58:56.677Z,2.30
